sensor_id;sensor_type;location;lat;lon;timestamp;pressure;altitude;pressure_sealevel;temperature;humidity
64844;BME280;51310;52.198;5.422;2022-11-20T00:01:30;101197.69;;;-4.65;100.00
64844;BME280;51310;52.198;5.422;2022-11-20T00:03:58;101190.16;;;-4.65;100.00
64844;BME280;51310;52.198;5.422;2022-11-20T00:06:25;101194.44;;;-4.69;100.00
64844;BME280;51310;52.198;5.422;2022-11-20T00:08:56;101193.13;;;-4.67;100.00
64844;BME280;51310;52.198;5.422;2022-11-20T00:11:25;101196.53;;;-4.67;100.00
64844;BME280;51310;52.198;5.422;2022-11-20T00:13:57;101197.09;;;-4.79;100.00
64844;BME280;51310;52.198;5.422;2022-11-20T00:16:28;101191.00;;;-4.91;100.00
64844;BME280;51310;52.198;5.422;2022-11-20T00:18:55;101191.84;;;-4.96;100.00
64844;BME280;51310;52.198;5.422;2022-11-20T00:21:24;101193.06;;;-4.88;100.00
64844;BME280;51310;52.198;5.422;2022-11-20T00:23:54;101192.91;;;-4.84;100.00
64844;BME280;51310;52.198;5.422;2022-11-20T00:26:23;101197.13;;;-4.95;100.00
64844;BME280;51310;52.198;5.422;2022-11-20T00:28:59;101194.38;;;-4.96;100.00
64844;BME280;51310;52.198;5.422;2022-11-20T00:31:27;101196.91;;;-4.90;100.00
64844;BME280;51310;52.198;5.422;2022-11-20T00:33:54;101189.75;;;-4.83;100.00
64844;BME280;51310;52.198;5.422;2022-11-20T00:36:23;101194.06;;;-4.82;100.00
64844;BME280;51310;52.198;5.422;2022-11-20T00:38:56;101186.63;;;-4.77;100.00
64844;BME280;51310;52.198;5.422;2022-11-20T00:41:24;101191.22;;;-4.74;100.00
64844;BME280;51310;52.198;5.422;2022-11-20T00:43:55;101188.69;;;-4.74;100.00
64844;BME280;51310;52.198;5.422;2022-11-20T00:46:25;101186.38;;;-4.78;100.00
64844;BME280;51310;52.198;5.422;2022-11-20T00:48:52;101189.22;;;-4.86;100.00
64844;BME280;51310;52.198;5.422;2022-11-20T00:51:23;101180.63;;;-4.98;100.00
64844;BME280;51310;52.198;5.422;2022-11-20T00:53:50;101180.81;;;-5.02;100.00
64844;BME280;51310;52.198;5.422;2022-11-20T00:56:19;101176.66;;;-5.07;100.00
64844;BME280;51310;52.198;5.422;2022-11-20T00:58:48;101174.97;;;-5.12;100.00
64844;BME280;51310;52.198;5.422;2022-11-20T01:01:24;101169.03;;;-5.13;100.00
64844;BME280;51310;52.198;5.422;2022-11-20T01:03:53;101162.69;;;-5.11;100.00
64844;BME280;51310;52.198;5.422;2022-11-20T01:06:25;101161.59;;;-5.07;100.00
64844;BME280;51310;52.198;5.422;2022-11-20T01:09:11;101158.72;;;-4.99;100.00
64844;BME280;51310;52.198;5.422;2022-11-20T01:11:42;101162.38;;;-4.97;100.00
64844;BME280;51310;52.198;5.422;2022-11-20T01:14:16;101161.78;;;-5.11;100.00
64844;BME280;51310;52.198;5.422;2022-11-20T01:16:47;101157.09;;;-5.20;100.00
64844;BME280;51310;52.198;5.422;2022-11-20T01:19:21;101158.31;;;-5.12;100.00
64844;BME280;51310;52.198;5.422;2022-11-20T01:21:53;101156.56;;;-5.07;100.00
64844;BME280;51310;52.198;5.422;2022-11-20T01:24:21;101156.88;;;-5.00;100.00
64844;BME280;51310;52.198;5.422;2022-11-20T01:26:50;101160.13;;;-4.96;100.00
64844;BME280;51310;52.198;5.422;2022-11-20T01:29:22;101150.41;;;-5.09;100.00
64844;BME280;51310;52.198;5.422;2022-11-20T01:31:49;101146.78;;;-5.21;100.00
64844;BME280;51310;52.198;5.422;2022-11-20T01:34:19;101147.88;;;-5.09;100.00
64844;BME280;51310;52.198;5.422;2022-11-20T01:36:47;101148.28;;;-4.97;100.00
64844;BME280;51310;52.198;5.422;2022-11-20T01:39:17;101146.13;;;-4.84;100.00
64844;BME280;51310;52.198;5.422;2022-11-20T01:41:46;101142.69;;;-4.84;100.00
64844;BME280;51310;52.198;5.422;2022-11-20T01:44:59;101150.00;;;-4.86;100.00
64844;BME280;51310;52.198;5.422;2022-11-20T01:47:39;101149.06;;;-4.86;100.00
64844;BME280;51310;52.198;5.422;2022-11-20T01:50:25;101149.41;;;-4.79;100.00
64844;BME280;51310;52.198;5.422;2022-11-20T01:53:05;101146.69;;;-4.96;100.00
64844;BME280;51310;52.198;5.422;2022-11-20T01:55:42;101145.38;;;-5.09;100.00
64844;BME280;51310;52.198;5.422;2022-11-20T01:58:23;101144.53;;;-5.20;100.00
64844;BME280;51310;52.198;5.422;2022-11-20T02:00:53;101129.75;;;-5.18;100.00
64844;BME280;51310;52.198;5.422;2022-11-20T02:03:20;101140.63;;;-5.23;100.00
64844;BME280;51310;52.198;5.422;2022-11-20T02:06:11;101139.22;;;-5.27;100.00
64844;BME280;51310;52.198;5.422;2022-11-20T02:08:40;101140.88;;;-5.22;100.00
64844;BME280;51310;52.198;5.422;2022-11-20T02:11:06;101133.78;;;-5.24;100.00
64844;BME280;51310;52.198;5.422;2022-11-20T02:13:33;101134.19;;;-5.27;100.00
64844;BME280;51310;52.198;5.422;2022-11-20T02:16:15;101125.59;;;-5.39;100.00
64844;BME280;51310;52.198;5.422;2022-11-20T02:18:53;101127.94;;;-5.34;100.00
64844;BME280;51310;52.198;5.422;2022-11-20T02:21:45;101129.59;;;-5.45;100.00
64844;BME280;51310;52.198;5.422;2022-11-20T02:24:19;101121.25;;;-5.55;100.00
64844;BME280;51310;52.198;5.422;2022-11-20T02:27:02;101123.75;;;-5.55;100.00
64844;BME280;51310;52.198;5.422;2022-11-20T02:32:29;101140.78;;;-5.27;100.00
64844;BME280;51310;52.198;5.422;2022-11-20T02:34:57;101141.63;;;-5.32;100.00
64844;BME280;51310;52.198;5.422;2022-11-20T02:37:27;101134.19;;;-5.58;100.00
64844;BME280;51310;52.198;5.422;2022-11-20T02:39:56;101118.84;;;-5.65;100.00
64844;BME280;51310;52.198;5.422;2022-11-20T02:42:22;101117.41;;;-5.68;100.00
64844;BME280;51310;52.198;5.422;2022-11-20T02:44:47;101112.81;;;-5.56;100.00
64844;BME280;51310;52.198;5.422;2022-11-20T02:47:13;101109.06;;;-5.48;100.00
64844;BME280;51310;52.198;5.422;2022-11-20T02:49:39;101120.25;;;-5.46;100.00
64844;BME280;51310;52.198;5.422;2022-11-20T02:52:05;101116.84;;;-5.46;100.00
64844;BME280;51310;52.198;5.422;2022-11-20T02:54:31;101113.66;;;-5.45;100.00
64844;BME280;51310;52.198;5.422;2022-11-20T02:56:57;101114.81;;;-5.43;100.00
64844;BME280;51310;52.198;5.422;2022-11-20T02:59:22;101104.31;;;-5.46;100.00
64844;BME280;51310;52.198;5.422;2022-11-20T03:01:48;101102.19;;;-5.49;100.00
64844;BME280;51310;52.198;5.422;2022-11-20T03:04:14;101099.28;;;-5.62;100.00
64844;BME280;51310;52.198;5.422;2022-11-20T03:06:40;101091.25;;;-5.65;100.00
64844;BME280;51310;52.198;5.422;2022-11-20T03:09:06;101099.38;;;-5.56;100.00
64844;BME280;51310;52.198;5.422;2022-11-20T03:11:32;101102.13;;;-5.54;100.00
64844;BME280;51310;52.198;5.422;2022-11-20T03:14:02;101089.94;;;-5.63;100.00
64844;BME280;51310;52.198;5.422;2022-11-20T03:16:28;101089.25;;;-5.77;100.00
64844;BME280;51310;52.198;5.422;2022-11-20T03:18:56;101077.56;;;-5.82;100.00
64844;BME280;51310;52.198;5.422;2022-11-20T03:21:22;101085.66;;;-5.73;100.00
64844;BME280;51310;52.198;5.422;2022-11-20T03:23:47;101090.38;;;-5.81;100.00
64844;BME280;51310;52.198;5.422;2022-11-20T03:26:21;101093.63;;;-5.91;100.00
64844;BME280;51310;52.198;5.422;2022-11-20T03:28:52;101082.25;;;-5.89;100.00
64844;BME280;51310;52.198;5.422;2022-11-20T03:31:23;101085.75;;;-5.83;100.00
64844;BME280;51310;52.198;5.422;2022-11-20T03:33:50;101086.16;;;-5.70;100.00
64844;BME280;51310;52.198;5.422;2022-11-20T03:36:20;101091.69;;;-5.67;100.00
64844;BME280;51310;52.198;5.422;2022-11-20T03:38:47;101083.66;;;-5.70;100.00
64844;BME280;51310;52.198;5.422;2022-11-20T03:41:17;101084.66;;;-5.64;100.00
64844;BME280;51310;52.198;5.422;2022-11-20T03:43:50;101080.63;;;-5.58;100.00
64844;BME280;51310;52.198;5.422;2022-11-20T03:46:16;101078.03;;;-5.64;100.00
64844;BME280;51310;52.198;5.422;2022-11-20T03:48:42;101073.41;;;-5.72;100.00
64844;BME280;51310;52.198;5.422;2022-11-20T03:51:18;101067.22;;;-5.74;100.00
64844;BME280;51310;52.198;5.422;2022-11-20T03:53:48;101070.47;;;-5.69;100.00
64844;BME280;51310;52.198;5.422;2022-11-20T03:56:19;101069.03;;;-5.73;100.00
64844;BME280;51310;52.198;5.422;2022-11-20T03:58:47;101070.38;;;-5.75;100.00
64844;BME280;51310;52.198;5.422;2022-11-20T04:01:23;101068.88;;;-5.84;100.00
64844;BME280;51310;52.198;5.422;2022-11-20T04:03:55;101064.41;;;-5.96;100.00
64844;BME280;51310;52.198;5.422;2022-11-20T04:06:26;101070.06;;;-5.82;100.00
64844;BME280;51310;52.198;5.422;2022-11-20T04:08:58;101074.53;;;-5.85;100.00
64844;BME280;51310;52.198;5.422;2022-11-20T04:11:29;101065.88;;;-5.87;100.00
64844;BME280;51310;52.198;5.422;2022-11-20T04:13:59;101065.25;;;-6.02;100.00
64844;BME280;51310;52.198;5.422;2022-11-20T04:16:31;101062.31;;;-6.14;100.00
64844;BME280;51310;52.198;5.422;2022-11-20T04:19:01;101058.16;;;-6.20;100.00
64844;BME280;51310;52.198;5.422;2022-11-20T04:21:28;101057.41;;;-6.09;100.00
64844;BME280;51310;52.198;5.422;2022-11-20T04:23:55;101044.44;;;-6.06;100.00
64844;BME280;51310;52.198;5.422;2022-11-20T04:26:23;101050.06;;;-6.13;100.00
64844;BME280;51310;52.198;5.422;2022-11-20T04:28:51;101048.78;;;-6.05;100.00
64844;BME280;51310;52.198;5.422;2022-11-20T04:31:21;101052.56;;;-5.97;100.00
64844;BME280;51310;52.198;5.422;2022-11-20T04:33:49;101049.13;;;-5.98;100.00
64844;BME280;51310;52.198;5.422;2022-11-20T04:36:20;101059.56;;;-6.01;100.00
64844;BME280;51310;52.198;5.422;2022-11-20T04:38:56;101048.63;;;-6.01;100.00
64844;BME280;51310;52.198;5.422;2022-11-20T04:41:33;101052.63;;;-6.07;100.00
64844;BME280;51310;52.198;5.422;2022-11-20T04:44:03;101045.03;;;-6.13;100.00
64844;BME280;51310;52.198;5.422;2022-11-20T04:46:39;101035.78;;;-6.08;100.00
64844;BME280;51310;52.198;5.422;2022-11-20T04:49:08;101038.69;;;-6.11;100.00
64844;BME280;51310;52.198;5.422;2022-11-20T04:51:34;101041.94;;;-6.06;100.00
64844;BME280;51310;52.198;5.422;2022-11-20T04:54:01;101034.91;;;-6.19;100.00
64844;BME280;51310;52.198;5.422;2022-11-20T04:56:27;101027.50;;;-6.13;100.00
64844;BME280;51310;52.198;5.422;2022-11-20T04:58:53;101025.59;;;-6.04;100.00
64844;BME280;51310;52.198;5.422;2022-11-20T05:01:22;101021.56;;;-6.13;100.00
64844;BME280;51310;52.198;5.422;2022-11-20T05:03:49;101023.25;;;-6.08;100.00
64844;BME280;51310;52.198;5.422;2022-11-20T05:06:19;101027.66;;;-6.02;100.00
64844;BME280;51310;52.198;5.422;2022-11-20T05:08:46;101029.44;;;-6.06;100.00
64844;BME280;51310;52.198;5.422;2022-11-20T05:11:19;101041.19;;;-6.11;100.00
64844;BME280;51310;52.198;5.422;2022-11-20T05:13:46;101032.34;;;-6.09;100.00
64844;BME280;51310;52.198;5.422;2022-11-20T05:16:18;101026.66;;;-6.08;100.00
64844;BME280;51310;52.198;5.422;2022-11-20T05:18:46;101020.91;;;-6.12;100.00
64844;BME280;51310;52.198;5.422;2022-11-20T05:21:13;101020.16;;;-6.17;100.00
64844;BME280;51310;52.198;5.422;2022-11-20T05:23:40;101028.25;;;-6.08;100.00
64844;BME280;51310;52.198;5.422;2022-11-20T05:26:18;101026.00;;;-6.07;100.00
64844;BME280;51310;52.198;5.422;2022-11-20T05:28:47;101011.16;;;-6.26;100.00
64844;BME280;51310;52.198;5.422;2022-11-20T05:31:17;101007.22;;;-6.30;100.00
64844;BME280;51310;52.198;5.422;2022-11-20T05:33:45;101003.00;;;-6.35;100.00
64844;BME280;51310;52.198;5.422;2022-11-20T05:36:13;100996.44;;;-6.34;100.00
64844;BME280;51310;52.198;5.422;2022-11-20T05:38:40;100999.59;;;-6.35;100.00
64844;BME280;51310;52.198;5.422;2022-11-20T05:41:18;100991.00;;;-6.32;100.00
64844;BME280;51310;52.198;5.422;2022-11-20T05:43:47;100991.28;;;-6.30;100.00
64844;BME280;51310;52.198;5.422;2022-11-20T05:46:17;100994.75;;;-6.24;100.00
64844;BME280;51310;52.198;5.422;2022-11-20T05:48:44;100992.81;;;-6.15;100.00
64844;BME280;51310;52.198;5.422;2022-11-20T05:51:18;101002.09;;;-6.20;100.00
64844;BME280;51310;52.198;5.422;2022-11-20T05:53:45;101007.63;;;-6.17;100.00
64844;BME280;51310;52.198;5.422;2022-11-20T05:56:18;101013.47;;;-6.07;100.00
64844;BME280;51310;52.198;5.422;2022-11-20T05:58:45;101013.06;;;-6.20;100.00
64844;BME280;51310;52.198;5.422;2022-11-20T06:01:14;101023.47;;;-6.22;100.00
64844;BME280;51310;52.198;5.422;2022-11-20T06:03:42;101021.56;;;-6.29;100.00
64844;BME280;51310;52.198;5.422;2022-11-20T06:06:11;101023.22;;;-6.39;100.00
64844;BME280;51310;52.198;5.422;2022-11-20T06:08:37;101026.81;;;-6.27;100.00
64844;BME280;51310;52.198;5.422;2022-11-20T06:11:10;101028.00;;;-6.25;100.00
64844;BME280;51310;52.198;5.422;2022-11-20T06:13:37;101017.56;;;-6.23;100.00
64844;BME280;51310;52.198;5.422;2022-11-20T06:16:04;101021.97;;;-6.31;100.00
64844;BME280;51310;52.198;5.422;2022-11-20T06:18:31;101019.88;;;-6.34;100.00
64844;BME280;51310;52.198;5.422;2022-11-20T06:21:21;101028.16;;;-6.29;100.00
64844;BME280;51310;52.198;5.422;2022-11-20T06:23:49;101036.72;;;-6.33;100.00
64844;BME280;51310;52.198;5.422;2022-11-20T06:26:23;101033.75;;;-6.36;100.00
64844;BME280;51310;52.198;5.422;2022-11-20T06:28:51;101034.00;;;-6.34;100.00
64844;BME280;51310;52.198;5.422;2022-11-20T06:31:22;101026.13;;;-6.42;100.00
64844;BME280;51310;52.198;5.422;2022-11-20T06:33:50;101024.78;;;-6.40;100.00
64844;BME280;51310;52.198;5.422;2022-11-20T06:36:19;101023.13;;;-6.45;100.00
64844;BME280;51310;52.198;5.422;2022-11-20T06:38:47;101027.66;;;-6.32;100.00
64844;BME280;51310;52.198;5.422;2022-11-20T06:41:19;101027.72;;;-6.27;100.00
64844;BME280;51310;52.198;5.422;2022-11-20T06:43:47;101027.50;;;-6.28;100.00
64844;BME280;51310;52.198;5.422;2022-11-20T06:46:15;101037.84;;;-6.21;100.00
64844;BME280;51310;52.198;5.422;2022-11-20T06:48:46;101036.94;;;-6.22;100.00
64844;BME280;51310;52.198;5.422;2022-11-20T06:51:13;101030.59;;;-6.20;100.00
64844;BME280;51310;52.198;5.422;2022-11-20T06:53:39;101023.41;;;-6.12;100.00
64844;BME280;51310;52.198;5.422;2022-11-20T06:56:06;101026.16;;;-6.11;100.00
64844;BME280;51310;52.198;5.422;2022-11-20T06:58:34;101020.91;;;-6.12;100.00
64844;BME280;51310;52.198;5.422;2022-11-20T07:01:05;101017.06;;;-6.10;100.00
64844;BME280;51310;52.198;5.422;2022-11-20T07:03:32;101016.16;;;-6.11;100.00
64844;BME280;51310;52.198;5.422;2022-11-20T07:06:00;101014.28;;;-6.12;100.00
64844;BME280;51310;52.198;5.422;2022-11-20T07:08:26;101010.94;;;-6.22;100.00
64844;BME280;51310;52.198;5.422;2022-11-20T07:10:57;101013.97;;;-6.19;100.00
64844;BME280;51310;52.198;5.422;2022-11-20T07:13:28;101010.47;;;-6.25;100.00
64844;BME280;51310;52.198;5.422;2022-11-20T07:15:59;101011.31;;;-6.30;100.00
64844;BME280;51310;52.198;5.422;2022-11-20T07:18:26;101011.22;;;-6.36;100.00
64844;BME280;51310;52.198;5.422;2022-11-20T07:20:52;101013.44;;;-6.37;100.00
64844;BME280;51310;52.198;5.422;2022-11-20T07:23:18;101010.53;;;-6.35;100.00
64844;BME280;51310;52.198;5.422;2022-11-20T07:25:44;101011.63;;;-6.38;100.00
64844;BME280;51310;52.198;5.422;2022-11-20T07:28:10;101012.13;;;-6.35;100.00
64844;BME280;51310;52.198;5.422;2022-11-20T07:30:36;101004.13;;;-6.38;100.00
64844;BME280;51310;52.198;5.422;2022-11-20T07:33:03;101001.94;;;-6.31;100.00
64844;BME280;51310;52.198;5.422;2022-11-20T07:35:29;100988.09;;;-6.29;100.00
64844;BME280;51310;52.198;5.422;2022-11-20T07:37:54;100985.50;;;-6.20;100.00
64844;BME280;51310;52.198;5.422;2022-11-20T07:40:20;100993.09;;;-6.14;100.00
64844;BME280;51310;52.198;5.422;2022-11-20T07:42:51;100991.25;;;-6.00;100.00
64844;BME280;51310;52.198;5.422;2022-11-20T07:45:20;100986.66;;;-6.02;100.00
64844;BME280;51310;52.198;5.422;2022-11-20T07:47:47;100985.63;;;-5.93;100.00
64844;BME280;51310;52.198;5.422;2022-11-20T07:50:14;100991.28;;;-5.79;100.00
64844;BME280;51310;52.198;5.422;2022-11-20T07:52:40;100988.06;;;-5.62;100.00
64844;BME280;51310;52.198;5.422;2022-11-20T07:55:08;101000.16;;;-5.60;100.00
64844;BME280;51310;52.198;5.422;2022-11-20T07:57:34;100996.13;;;-5.53;100.00
64844;BME280;51310;52.198;5.422;2022-11-20T08:00:00;101003.06;;;-5.47;100.00
64844;BME280;51310;52.198;5.422;2022-11-20T08:02:26;100997.03;;;-5.38;100.00
64844;BME280;51310;52.198;5.422;2022-11-20T08:04:52;101007.19;;;-5.26;100.00
64844;BME280;51310;52.198;5.422;2022-11-20T08:07:17;101000.81;;;-5.24;100.00
64844;BME280;51310;52.198;5.422;2022-11-20T08:09:43;101001.13;;;-5.17;100.00
64844;BME280;51310;52.198;5.422;2022-11-20T08:12:18;100985.63;;;-5.15;100.00
64844;BME280;51310;52.198;5.422;2022-11-20T08:15:05;100983.19;;;-5.09;100.00
64844;BME280;51310;52.198;5.422;2022-11-20T08:17:32;100981.34;;;-5.10;100.00
64844;BME280;51310;52.198;5.422;2022-11-20T08:19:58;100986.25;;;-5.00;100.00
64844;BME280;51310;52.198;5.422;2022-11-20T08:22:24;100982.19;;;-4.94;100.00
64844;BME280;51310;52.198;5.422;2022-11-20T08:24:50;100976.84;;;-4.80;100.00
64844;BME280;51310;52.198;5.422;2022-11-20T08:27:16;100972.53;;;-4.76;100.00
64844;BME280;51310;52.198;5.422;2022-11-20T08:29:42;100973.50;;;-4.69;100.00
64844;BME280;51310;52.198;5.422;2022-11-20T08:32:08;100970.84;;;-4.60;100.00
64844;BME280;51310;52.198;5.422;2022-11-20T08:34:34;100968.22;;;-4.44;100.00
64844;BME280;51310;52.198;5.422;2022-11-20T08:37:02;100969.84;;;-4.39;100.00
64844;BME280;51310;52.198;5.422;2022-11-20T08:39:28;100968.09;;;-4.29;100.00
64844;BME280;51310;52.198;5.422;2022-11-20T08:41:54;100972.03;;;-4.25;100.00
64844;BME280;51310;52.198;5.422;2022-11-20T08:44:20;100976.88;;;-4.16;100.00
64844;BME280;51310;52.198;5.422;2022-11-20T08:46:46;100976.47;;;-4.02;100.00
64844;BME280;51310;52.198;5.422;2022-11-20T08:49:14;100966.44;;;-4.02;100.00
64844;BME280;51310;52.198;5.422;2022-11-20T08:51:41;100967.63;;;-3.94;100.00
64844;BME280;51310;52.198;5.422;2022-11-20T08:54:08;100972.25;;;-3.86;100.00
64844;BME280;51310;52.198;5.422;2022-11-20T08:56:34;100959.91;;;-3.84;100.00
64844;BME280;51310;52.198;5.422;2022-11-20T08:59:00;100965.38;;;-3.87;100.00
64844;BME280;51310;52.198;5.422;2022-11-20T09:01:27;100969.13;;;-3.68;100.00
64844;BME280;51310;52.198;5.422;2022-11-20T09:03:57;100958.88;;;-3.58;100.00
64844;BME280;51310;52.198;5.422;2022-11-20T09:06:25;100950.66;;;-3.46;100.00
64844;BME280;51310;52.198;5.422;2022-11-20T09:08:54;100945.66;;;-3.40;100.00
64844;BME280;51310;52.198;5.422;2022-11-20T09:11:21;100950.25;;;-3.43;100.00
64844;BME280;51310;52.198;5.422;2022-11-20T09:13:47;100941.53;;;-3.40;100.00
64844;BME280;51310;52.198;5.422;2022-11-20T09:16:13;100946.38;;;-3.36;100.00
64844;BME280;51310;52.198;5.422;2022-11-20T09:18:39;100946.84;;;-3.27;100.00
64844;BME280;51310;52.198;5.422;2022-11-20T09:21:10;100939.09;;;-3.17;100.00
64844;BME280;51310;52.198;5.422;2022-11-20T09:23:38;100938.63;;;-3.15;100.00
64844;BME280;51310;52.198;5.422;2022-11-20T09:26:12;100935.88;;;-3.16;100.00
64844;BME280;51310;52.198;5.422;2022-11-20T09:28:40;100938.41;;;-3.11;100.00
64844;BME280;51310;52.198;5.422;2022-11-20T09:31:24;100930.88;;;-3.11;100.00
64844;BME280;51310;52.198;5.422;2022-11-20T09:33:51;100929.50;;;-2.86;100.00
64844;BME280;51310;52.198;5.422;2022-11-20T09:36:17;100922.66;;;-2.87;100.00
64844;BME280;51310;52.198;5.422;2022-11-20T09:38:47;100914.63;;;-2.90;100.00
64844;BME280;51310;52.198;5.422;2022-11-20T09:47:08;100902.69;;;-2.57;100.00
64844;BME280;51310;52.198;5.422;2022-11-20T09:50:06;100900.44;;;-2.67;100.00
64844;BME280;51310;52.198;5.422;2022-11-20T09:55:31;100896.91;;;-2.34;100.00
64844;BME280;51310;52.198;5.422;2022-11-20T09:57:59;100903.09;;;-2.32;100.00
64844;BME280;51310;52.198;5.422;2022-11-20T10:00:27;100894.59;;;-2.15;100.00
64844;BME280;51310;52.198;5.422;2022-11-20T10:03:16;100896.66;;;-2.13;100.00
64844;BME280;51310;52.198;5.422;2022-11-20T10:05:51;100890.94;;;-2.23;100.00
64844;BME280;51310;52.198;5.422;2022-11-20T10:08:41;100886.78;;;-2.11;100.00
64844;BME280;51310;52.198;5.422;2022-11-20T10:11:35;100888.59;;;-2.10;100.00
64844;BME280;51310;52.198;5.422;2022-11-20T10:14:37;100875.75;;;-2.06;100.00
64844;BME280;51310;52.198;5.422;2022-11-20T10:17:27;100873.47;;;-2.04;100.00
64844;BME280;51310;52.198;5.422;2022-11-20T10:20:46;100867.47;;;-1.94;100.00
64844;BME280;51310;52.198;5.422;2022-11-20T10:23:34;100857.09;;;-1.84;100.00
64844;BME280;51310;52.198;5.422;2022-11-20T10:29:33;100856.31;;;-1.66;100.00
64844;BME280;51310;52.198;5.422;2022-11-20T10:32:07;100846.19;;;-1.60;100.00
64844;BME280;51310;52.198;5.422;2022-11-20T10:34:59;100843.88;;;-1.53;100.00
64844;BME280;51310;52.198;5.422;2022-11-20T10:37:30;100841.06;;;-1.49;100.00
64844;BME280;51310;52.198;5.422;2022-11-20T10:40:22;100841.19;;;-1.36;100.00
64844;BME280;51310;52.198;5.422;2022-11-20T10:43:19;100836.88;;;-1.37;100.00
64844;BME280;51310;52.198;5.422;2022-11-20T10:46:03;100832.28;;;-1.40;100.00
64844;BME280;51310;52.198;5.422;2022-11-20T10:48:32;100827.16;;;-1.29;100.00
64844;BME280;51310;52.198;5.422;2022-11-20T10:57:56;100801.06;;;-1.11;100.00
64844;BME280;51310;52.198;5.422;2022-11-20T11:00:31;100797.97;;;-0.97;100.00
64844;BME280;51310;52.198;5.422;2022-11-20T11:02:57;100793.97;;;-0.89;100.00
64844;BME280;51310;52.198;5.422;2022-11-20T11:05:44;100792.47;;;-0.76;100.00
64844;BME280;51310;52.198;5.422;2022-11-20T11:08:19;100785.97;;;-0.68;100.00
64844;BME280;51310;52.198;5.422;2022-11-20T11:10:53;100778.97;;;-0.58;100.00
64844;BME280;51310;52.198;5.422;2022-11-20T11:13:30;100771.28;;;-0.52;100.00
64844;BME280;51310;52.198;5.422;2022-11-20T11:15:58;100775.13;;;-0.43;100.00
64844;BME280;51310;52.198;5.422;2022-11-20T11:20:57;100765.19;;;-0.42;100.00
64844;BME280;51310;52.198;5.422;2022-11-20T11:23:42;100766.75;;;-0.36;100.00
64844;BME280;51310;52.198;5.422;2022-11-20T11:26:23;100757.31;;;-0.37;100.00
64844;BME280;51310;52.198;5.422;2022-11-20T11:29:02;100749.19;;;-0.29;100.00
64844;BME280;51310;52.198;5.422;2022-11-20T11:31:34;100740.19;;;-0.27;100.00
64844;BME280;51310;52.198;5.422;2022-11-20T11:34:17;100736.53;;;-0.29;100.00
64844;BME280;51310;52.198;5.422;2022-11-20T11:36:56;100737.38;;;-0.23;100.00
64844;BME280;51310;52.198;5.422;2022-11-20T11:39:25;100737.38;;;-0.23;100.00
64844;BME280;51310;52.198;5.422;2022-11-20T11:41:52;100729.28;;;-0.21;100.00
64844;BME280;51310;52.198;5.422;2022-11-20T11:44:28;100728.00;;;-0.11;100.00
64844;BME280;51310;52.198;5.422;2022-11-20T11:58:50;100704.16;;;-0.01;100.00
64844;BME280;51310;52.198;5.422;2022-11-20T12:01:44;100694.38;;;0.08;100.00
64844;BME280;51310;52.198;5.422;2022-11-20T12:04:16;100684.41;;;0.15;100.00
64844;BME280;51310;52.198;5.422;2022-11-20T12:07:11;100675.78;;;0.20;100.00
64844;BME280;51310;52.198;5.422;2022-11-20T12:09:49;100670.84;;;0.28;100.00
64844;BME280;51310;52.198;5.422;2022-11-20T12:12:24;100673.19;;;0.26;100.00
64844;BME280;51310;52.198;5.422;2022-11-20T12:14:55;100670.34;;;0.30;100.00
64844;BME280;51310;52.198;5.422;2022-11-20T12:17:22;100653.25;;;0.35;100.00
64844;BME280;51310;52.198;5.422;2022-11-20T12:19:49;100656.47;;;0.34;100.00
64844;BME280;51310;52.198;5.422;2022-11-20T12:22:36;100655.78;;;0.35;100.00
64844;BME280;51310;52.198;5.422;2022-11-20T12:25:22;100649.09;;;0.35;100.00
64844;BME280;51310;52.198;5.422;2022-11-20T12:28:18;100656.09;;;0.44;100.00
64844;BME280;51310;52.198;5.422;2022-11-20T12:31:16;100645.97;;;0.44;100.00
64844;BME280;51310;52.198;5.422;2022-11-20T12:37:38;100635.13;;;0.57;100.00
64844;BME280;51310;52.198;5.422;2022-11-20T12:40:46;100639.16;;;0.63;100.00
64844;BME280;51310;52.198;5.422;2022-11-20T12:43:30;100630.13;;;0.65;100.00
64844;BME280;51310;52.198;5.422;2022-11-20T12:49:23;100622.53;;;0.65;100.00
64844;BME280;51310;52.198;5.422;2022-11-20T12:52:24;100616.69;;;0.58;100.00
64844;BME280;51310;52.198;5.422;2022-11-20T13:00:55;100584.47;;;0.57;100.00
64844;BME280;51310;52.198;5.422;2022-11-20T13:03:44;100573.44;;;0.57;100.00
64844;BME280;51310;52.198;5.422;2022-11-20T13:06:19;100556.03;;;0.53;100.00
64844;BME280;51310;52.198;5.422;2022-11-20T13:08:53;100555.50;;;0.55;100.00
64844;BME280;51310;52.198;5.422;2022-11-20T13:11:47;100557.66;;;0.52;100.00
64844;BME280;51310;52.198;5.422;2022-11-20T13:17:42;100544.25;;;0.53;100.00
64844;BME280;51310;52.198;5.422;2022-11-20T13:20:17;100535.03;;;0.54;100.00
64844;BME280;51310;52.198;5.422;2022-11-20T13:22:49;100525.94;;;0.49;100.00
64844;BME280;51310;52.198;5.422;2022-11-20T13:25:33;100522.31;;;0.47;100.00
64844;BME280;51310;52.198;5.422;2022-11-20T13:28:29;100517.53;;;0.43;100.00
64844;BME280;51310;52.198;5.422;2022-11-20T13:30:57;100525.94;;;0.49;100.00
64844;BME280;51310;52.198;5.422;2022-11-20T13:33:33;100518.72;;;0.52;100.00
64844;BME280;51310;52.198;5.422;2022-11-20T13:36:26;100518.34;;;0.49;100.00
64844;BME280;51310;52.198;5.422;2022-11-20T13:38:55;100524.72;;;0.52;100.00
64844;BME280;51310;52.198;5.422;2022-11-20T13:41:35;100524.44;;;0.56;100.00
64844;BME280;51310;52.198;5.422;2022-11-20T13:46:44;100513.25;;;0.61;100.00
64844;BME280;51310;52.198;5.422;2022-11-20T13:49:32;100514.38;;;0.64;100.00
64844;BME280;51310;52.198;5.422;2022-11-20T13:58:24;100491.88;;;0.59;100.00
64844;BME280;51310;52.198;5.422;2022-11-20T14:03:34;100470.72;;;0.59;100.00
64844;BME280;51310;52.198;5.422;2022-11-20T14:06:10;100474.53;;;0.63;100.00
64844;BME280;51310;52.198;5.422;2022-11-20T14:08:42;100472.44;;;0.66;100.00
64844;BME280;51310;52.198;5.422;2022-11-20T14:11:20;100479.50;;;0.68;100.00